ENNH weather

Namsos Heliport, Hospital
Namsos, Nord-Trøndelag, Norway

Public forecast

Using degrees Celsius for public forecast. Weather courtesy of forecast.io.

Closest aviation weather report (METAR) to Namsos Heliport, Hospital

Report is more than 6 hours old.

Closest report is Namsos Høknesøra Airport, 1.9 nm (3.6 km) E. Retrieved 2020/04/03 17:50 UTC (15 hours ago):

ENNM 031750Z 25011KT 3000 -SHSN VV012 M02/M03 Q0999

Closest aviation forecast (TAF) to Namsos Heliport, Hospital

Closest forecast is Trondheim Airport Værnes, 62.7 nm (116.1 km) SSW. Retrieved 2020/04/04 06:57 UTC (2 hours ago):

TAF ENVA 040500Z 0406/0506 26015KT 9999 -SHSN FEW015TCU BKN030 TEMPO 0406/0415 30025KT 0600 SHSNGS VV005 TEMPO 0406/0415 SCT015CB BECMG 0417/0420 10008KT